createdAt,value
2022-08-25T00:00:52.113Z,94.29
2022-08-25T00:01:52.971Z,94.29
2022-08-25T00:02:56.214Z,94.20
2022-08-25T00:03:53.943Z,94.29
2022-08-25T00:04:53.780Z,94.29
2022-08-25T00:05:53.593Z,94.29
2022-08-25T00:06:52.906Z,94.39
2022-08-25T00:07:54.157Z,94.39
2022-08-25T00:08:54.342Z,94.49
2022-08-25T00:09:53.894Z,94.39
2022-08-25T00:11:03.150Z,94.59
2022-08-25T00:11:57.722Z,94.49
2022-08-25T00:12:54.628Z,94.49
2022-08-25T00:13:55.995Z,94.49
2022-08-25T00:14:54.271Z,94.49
2022-08-25T00:15:58.485Z,94.49
2022-08-25T00:16:57.657Z,94.49
2022-08-25T00:17:55.188Z,94.70
2022-08-25T00:18:57.377Z,94.70
2022-08-25T00:19:55.763Z,94.70
2022-08-25T00:20:59.922Z,94.70
2022-08-25T00:21:58.169Z,94.79
2022-08-25T00:22:56.683Z,95.00
2022-08-25T00:23:56.997Z,95.00
2022-08-25T00:24:57.305Z,95.00
2022-08-25T00:25:58.500Z,94.90
2022-08-25T00:26:59.857Z,94.90
2022-08-25T00:28:01.432Z,94.79
2022-08-25T00:29:01.255Z,94.79
2022-08-25T00:30:00.607Z,94.79
2022-08-25T00:31:01.932Z,94.79
2022-08-25T00:32:01.297Z,94.90
2022-08-25T00:33:01.480Z,94.90
2022-08-25T00:34:01.669Z,94.90
2022-08-25T00:35:01.885Z,94.90
2022-08-25T00:36:03.458Z,94.90
2022-08-25T00:37:00.835Z,94.90
2022-08-25T00:38:03.038Z,95.00
2022-08-25T00:39:01.399Z,95.00
2022-08-25T00:40:03.664Z,95.00
2022-08-25T00:41:05.003Z,95.00
2022-08-25T00:42:04.032Z,95.10
2022-08-25T00:43:02.537Z,95.10
2022-08-25T00:44:02.851Z,95.10
2022-08-25T00:45:05.010Z,95.14
2022-08-25T00:46:04.293Z,95.24
2022-08-25T00:47:05.612Z,95.24
2022-08-25T00:48:04.166Z,95.34
2022-08-25T00:49:04.104Z,95.34
2022-08-25T00:50:06.310Z,95.34
2022-08-25T00:51:05.569Z,95.24
2022-08-25T00:52:08.454Z,95.24
2022-08-25T00:53:05.246Z,95.24
2022-08-25T00:54:05.557Z,95.24
2022-08-25T00:55:07.985Z,95.24
2022-08-25T00:56:07.146Z,95.34
2022-08-25T00:57:06.504Z,95.34
2022-08-25T00:58:06.815Z,95.34
2022-08-25T00:59:09.000Z,95.24
2022-08-25T01:00:07.386Z,95.34
2022-08-25T01:01:11.596Z,95.24
2022-08-25T01:02:13.544Z,95.20
2022-08-25T01:03:09.224Z,95.24
2022-08-25T01:04:08.473Z,95.24
2022-08-25T01:05:10.650Z,95.24
2022-08-25T01:06:10.018Z,95.24
2022-08-25T01:07:13.832Z,95.34
2022-08-25T01:08:12.448Z,95.24
2022-08-25T01:09:10.107Z,95.34
2022-08-25T01:10:12.525Z,95.34
2022-08-25T01:11:11.366Z,95.34
2022-08-25T01:12:11.757Z,95.44
2022-08-25T01:13:16.378Z,95.34
2022-08-25T01:14:12.068Z,95.54
2022-08-25T01:15:11.563Z,95.44
2022-08-25T01:16:14.991Z,95.44
2022-08-25T01:17:12.129Z,95.44
2022-08-25T01:18:14.317Z,95.44
2022-08-25T01:19:15.222Z,95.34
2022-08-25T01:20:13.037Z,95.44
2022-08-25T01:21:13.580Z,95.54
2022-08-25T01:22:14.609Z,95.54
2022-08-25T01:23:15.809Z,95.54
2022-08-25T01:24:14.072Z,95.54
2022-08-25T01:25:14.376Z,95.54
2022-08-25T01:26:18.546Z,95.44
2022-08-25T01:27:15.026Z,95.54
2022-08-25T01:28:17.224Z,95.54
2022-08-25T01:29:15.638Z,95.54
2022-08-25T01:30:15.950Z,95.54
2022-08-25T01:31:23.658Z,95.64
2022-08-25T01:32:17.594Z,95.54
2022-08-25T01:33:16.841Z,95.64
2022-08-25T01:34:17.160Z,95.54
2022-08-25T01:35:19.345Z,95.64
2022-08-25T01:36:20.707Z,95.64
2022-08-25T01:37:18.083Z,95.64
2022-08-25T01:38:20.285Z,95.54
2022-08-25T01:39:18.583Z,95.64
2022-08-25T01:40:20.821Z,95.54
2022-08-25T01:41:20.225Z,95.54
2022-08-25T01:42:20.477Z,95.54
2022-08-25T01:43:19.716Z,95.54
2022-08-25T01:44:20.067Z,95.64
2022-08-25T01:45:22.329Z,95.64
2022-08-25T01:46:23.747Z,95.75
2022-08-25T01:47:24.259Z,95.75
2022-08-25T01:48:22.113Z,95.64
2022-08-25T01:49:24.920Z,95.64
2022-08-25T01:50:23.430Z,95.75
2022-08-25T01:51:25.161Z,95.75
2022-08-25T01:52:24.353Z,95.75
2022-08-25T01:53:23.682Z,95.75
2022-08-25T01:54:25.050Z,95.75
2022-08-25T01:55:23.431Z,95.84
2022-08-25T01:56:24.733Z,95.75
2022-08-25T01:57:23.970Z,95.84
2022-08-25T01:58:24.312Z,95.84
2022-08-25T01:59:26.482Z,95.84
2022-08-25T02:00:26.680Z,95.99
2022-08-25T02:01:28.100Z,96.09
2022-08-25T02:02:26.112Z,96.09
2022-08-25T02:03:25.812Z,96.19
2022-08-25T02:04:26.982Z,96.19
2022-08-25T02:05:26.361Z,96.30
2022-08-25T02:06:30.528Z,96.30
2022-08-25T02:07:27.976Z,96.30
2022-08-25T02:08:27.217Z,96.30
2022-08-25T02:09:27.530Z,96.30
2022-08-25T02:10:27.880Z,96.39
2022-08-25T02:11:29.150Z,96.39
2022-08-25T02:12:29.965Z,96.50
2022-08-25T02:13:31.321Z,96.50
2022-08-25T02:14:28.962Z,96.50
2022-08-25T02:15:31.168Z,96.50
2022-08-25T02:16:32.547Z,96.50
2022-08-25T02:17:30.597Z,96.50
2022-08-25T02:18:31.015Z,96.50
2022-08-25T02:19:30.396Z,96.50
2022-08-25T02:20:30.706Z,96.50
2022-08-25T02:21:33.918Z,96.59
2022-08-25T02:22:33.138Z,96.59
2022-08-25T02:23:32.333Z,96.59
2022-08-25T02:24:31.948Z,96.50
2022-08-25T02:25:32.266Z,96.50
2022-08-25T02:26:35.418Z,96.50
2022-08-25T02:27:32.826Z,96.50
2022-08-25T02:28:35.035Z,96.50
2022-08-25T02:29:33.446Z,96.39
2022-08-25T02:30:33.785Z,96.39
2022-08-25T02:31:37.911Z,96.50
2022-08-25T02:32:34.344Z,96.50
2022-08-25T02:33:36.529Z,96.39
2022-08-25T02:34:36.726Z,96.39
2022-08-25T02:35:36.897Z,96.39
2022-08-25T02:36:38.501Z,96.30
2022-08-25T02:37:35.779Z,96.30
2022-08-25T02:38:37.982Z,96.30
2022-08-25T02:39:38.147Z,96.39
2022-08-25T02:40:38.335Z,96.39
2022-08-25T02:41:39.810Z,96.39
2022-08-25T02:42:37.216Z,96.39
2022-08-25T02:43:39.386Z,96.39
2022-08-25T02:44:39.541Z,96.50
2022-08-25T02:45:39.787Z,96.39
2022-08-25T02:46:39.332Z,96.39
2022-08-25T02:47:40.352Z,96.39
2022-08-25T02:48:38.864Z,96.50
2022-08-25T02:49:41.043Z,96.64
2022-08-25T02:50:39.456Z,96.64
2022-08-25T02:51:40.648Z,96.64
2022-08-25T02:52:40.014Z,96.74
2022-08-25T02:53:42.199Z,96.74
2022-08-25T02:54:40.597Z,96.84
2022-08-25T02:55:40.912Z,96.84
2022-08-25T02:56:42.215Z,96.94
2022-08-25T02:57:41.787Z,96.94
2022-08-25T02:58:43.505Z,96.94
2022-08-25T02:59:42.130Z,97.04
2022-08-25T03:00:44.412Z,97.04
2022-08-25T03:01:43.519Z,97.04
2022-08-25T03:02:46.836Z,97.04
2022-08-25T03:03:43.618Z,96.94
2022-08-25T03:04:45.453Z,97.14
2022-08-25T03:05:43.692Z,97.24
2022-08-25T03:06:44.833Z,97.34
2022-08-25T03:07:46.206Z,97.34
2022-08-25T03:08:44.593Z,97.49
2022-08-25T03:09:46.767Z,97.49
2022-08-25T03:10:45.139Z,97.59
2022-08-25T03:11:47.317Z,97.49
2022-08-25T03:12:47.478Z,97.59
2022-08-25T03:13:47.664Z,97.59
2022-08-25T03:14:46.293Z,97.59
2022-08-25T03:15:46.568Z,97.69
2022-08-25T03:16:47.045Z,97.69
2022-08-25T03:17:47.149Z,97.89
2022-08-25T03:18:47.356Z,97.89
2022-08-25T03:19:47.666Z,97.89
2022-08-25T03:20:47.974Z,97.89
2022-08-25T03:21:50.158Z,98.10
2022-08-25T03:22:48.556Z,98.19
2022-08-25T03:23:48.869Z,98.30
2022-08-25T03:24:49.171Z,98.30
2022-08-25T03:25:49.480Z,98.39
2022-08-25T03:26:51.658Z,98.50
2022-08-25T03:27:50.075Z,98.54
2022-08-25T03:28:50.385Z,98.65
2022-08-25T03:29:50.700Z,98.74
2022-08-25T03:30:55.822Z,98.85
2022-08-25T03:31:53.246Z,98.94
2022-08-25T03:32:53.253Z,98.94
2022-08-25T03:33:51.892Z,98.94
2022-08-25T03:34:52.198Z,98.94
2022-08-25T03:35:52.528Z,98.94
2022-08-25T03:36:54.709Z,99.05
2022-08-25T03:37:53.895Z,99.05
2022-08-25T03:38:56.735Z,99.05
2022-08-25T03:39:53.655Z,99.15
2022-08-25T03:40:54.894Z,99.25
2022-08-25T03:41:56.114Z,99.35
2022-08-25T03:42:56.295Z,99.35
2022-08-25T03:43:56.475Z,99.45
2022-08-25T03:44:56.031Z,99.60
2022-08-25T03:45:55.459Z,99.60
2022-08-25T03:46:57.594Z,99.60
2022-08-25T03:47:55.978Z,99.80
2022-08-25T03:48:58.161Z,99.75
2022-08-25T03:49:56.554Z,99.80
2022-08-25T03:50:57.763Z,99.80
2022-08-25T03:51:57.161Z,99.80
2022-08-25T03:52:59.351Z,99.70
2022-08-25T03:54:00.992Z,99.80
2022-08-25T03:55:01.175Z,99.80
2022-08-25T03:56:01.378Z,99.80
2022-08-25T03:57:00.604Z,99.99
2022-08-25T03:57:59.975Z,99.99
2022-08-25T03:59:01.065Z,99.99
2022-08-25T04:00:01.247Z,99.99
2022-08-25T04:01:01.171Z,99.99
2022-08-25T04:02:01.916Z,99.99
2022-08-25T04:03:00.959Z,99.99
2022-08-25T04:04:02.351Z,99.99
2022-08-25T04:05:00.752Z,99.99
2022-08-25T04:06:04.002Z,99.99
2022-08-25T04:07:03.130Z,99.99
2022-08-25T04:08:02.398Z,99.99
2022-08-25T04:09:01.952Z,99.99
2022-08-25T04:10:03.105Z,99.99
2022-08-25T04:11:04.112Z,99.99
2022-08-25T04:12:04.851Z,99.99
2022-08-25T04:13:04.112Z,99.99
2022-08-25T04:14:06.812Z,99.99
2022-08-25T04:15:03.611Z,99.99
2022-08-25T04:16:07.813Z,99.99
2022-08-25T04:17:05.253Z,99.99
2022-08-25T04:18:04.649Z,99.99
2022-08-25T04:19:05.711Z,99.99
2022-08-25T04:20:06.893Z,99.99
2022-08-25T04:21:07.466Z,99.99
2022-08-25T04:22:06.774Z,99.99
2022-08-25T04:23:07.958Z,99.99
2022-08-25T04:24:08.143Z,99.99
2022-08-25T04:25:08.334Z,99.99
2022-08-25T04:26:09.002Z,99.99
2022-08-25T04:27:07.303Z,99.99
2022-08-25T04:28:09.494Z,99.99
2022-08-25T04:29:09.657Z,99.99
2022-08-25T04:30:09.818Z,99.99
2022-08-25T04:31:10.305Z,99.99
2022-08-25T04:32:08.805Z,99.99
2022-08-25T04:33:09.002Z,99.99
2022-08-25T04:34:28.446Z,99.99
2022-08-25T04:35:10.625Z,99.99
2022-08-25T04:36:12.352Z,99.99
2022-08-25T04:37:10.244Z,99.99
2022-08-25T04:38:10.594Z,99.99
2022-08-25T04:39:12.788Z,99.99
2022-08-25T04:40:13.008Z,99.99
2022-08-25T04:41:12.889Z,99.99
2022-08-25T04:42:12.651Z,99.99
2022-08-25T04:43:13.848Z,99.99
2022-08-25T04:44:14.030Z,99.99
2022-08-25T04:45:13.312Z,99.99
2022-08-25T04:46:20.075Z,99.99
2022-08-25T04:47:13.069Z,99.99
2022-08-25T04:48:15.201Z,99.99
2022-08-25T04:49:15.370Z,99.99
2022-08-25T04:50:13.918Z,99.99
2022-08-25T04:51:15.631Z,99.99
2022-08-25T04:52:15.387Z,99.99
2022-08-25T04:53:14.653Z,99.99
2022-08-25T04:54:16.842Z,99.99
2022-08-25T04:55:15.248Z,99.99
2022-08-25T04:56:18.663Z,99.99
2022-08-25T04:57:15.850Z,99.99
2022-08-25T04:58:16.689Z,99.99
2022-08-25T04:59:18.371Z,99.75
2022-08-25T05:00:16.804Z,99.75
2022-08-25T05:01:21.021Z,99.60
2022-08-25T05:02:20.643Z,99.10
2022-08-25T05:03:17.582Z,98.55
2022-08-25T05:04:28.050Z,97.95
2022-08-25T05:05:19.037Z,97.30
2022-08-25T05:06:20.229Z,97.09
2022-08-25T05:07:21.710Z,96.45
2022-08-25T05:08:18.893Z,95.80
2022-08-25T05:09:19.824Z,95.00
2022-08-25T05:10:19.414Z,94.39
2022-08-25T05:11:21.589Z,94.09
2022-08-25T05:12:19.943Z,94.09
2022-08-25T05:13:22.123Z,94.05
2022-08-25T05:14:21.918Z,94.05
2022-08-25T05:15:20.742Z,93.30
2022-08-25T05:16:21.128Z,93.04
2022-08-25T05:17:23.281Z,93.10
2022-08-25T05:18:23.464Z,92.80
2022-08-25T05:19:22.856Z,92.50
2022-08-25T05:20:22.132Z,92.30
2022-08-25T05:21:22.362Z,92.50
2022-08-25T05:22:22.595Z,92.10
2022-08-25T05:23:24.792Z,92.20
2022-08-25T05:24:26.971Z,92.30
2022-08-25T05:25:23.407Z,92.10
2022-08-25T05:26:23.755Z,92.60
2022-08-25T05:27:25.939Z,92.50
2022-08-25T05:28:24.368Z,92.70
2022-08-25T05:29:25.476Z,92.66
2022-08-25T05:30:24.886Z,91.96
2022-08-25T05:31:25.311Z,91.41
2022-08-25T05:32:27.294Z,91.55
2022-08-25T05:33:25.718Z,91.31
2022-08-25T05:34:29.891Z,91.11
2022-08-25T05:35:26.216Z,90.95
2022-08-25T05:36:26.444Z,92.40
2022-08-25T05:37:26.665Z,92.76
2022-08-25T05:38:30.803Z,92.31
2022-08-25T05:39:30.144Z,91.55
2022-08-25T05:40:27.517Z,92.01
2022-08-25T05:41:27.743Z,90.81
2022-08-25T05:42:29.934Z,91.51
2022-08-25T05:43:30.113Z,91.51
2022-08-25T05:44:29.408Z,91.61
2022-08-25T05:45:28.895Z,91.61
2022-08-25T05:46:31.627Z,91.75
2022-08-25T05:47:31.283Z,92.05
2022-08-25T05:48:31.473Z,91.61
2022-08-25T05:49:32.786Z,91.91
2022-08-25T05:50:30.245Z,91.36
2022-08-25T05:51:34.416Z,90.66
2022-08-25T05:52:32.601Z,90.66
2022-08-25T05:53:33.726Z,91.16
2022-08-25T05:54:34.368Z,90.66
2022-08-25T05:55:32.467Z,90.42
2022-08-25T05:56:33.746Z,89.62
2022-08-25T05:57:33.522Z,89.78
2022-08-25T05:58:33.199Z,89.72
2022-08-25T05:59:33.615Z,89.92
2022-08-25T06:00:33.763Z,90.66
2022-08-25T06:01:35.112Z,90.62
2022-08-25T06:02:34.337Z,90.28
2022-08-25T06:03:34.566Z,89.18
2022-08-25T06:04:41.074Z,89.58
2022-08-25T06:05:34.226Z,88.37
2022-08-25T06:06:34.468Z,90.12
2022-08-25T06:07:34.705Z,89.58
2022-08-25T06:08:34.960Z,89.07
2022-08-25T06:09:38.283Z,89.28
2022-08-25T06:10:35.490Z,89.33
2022-08-25T06:11:35.746Z,89.68
2022-08-25T06:12:37.930Z,89.58
2022-08-25T06:13:36.248Z,89.43
2022-08-25T06:14:39.943Z,87.69
2022-08-25T06:15:36.782Z,87.99
2022-08-25T06:16:37.096Z,87.35
2022-08-25T06:17:37.315Z,86.65
2022-08-25T06:18:37.553Z,87.25
2022-08-25T06:19:41.734Z,86.05
2022-08-25T06:20:38.068Z,86.29
2022-08-25T06:21:38.311Z,87.53
2022-08-25T06:22:39.507Z,88.43
2022-08-25T06:23:40.678Z,87.69
2022-08-25T06:24:41.846Z,87.19
2022-08-25T06:25:41.072Z,86.29
2022-08-25T06:26:41.268Z,86.69
2022-08-25T06:27:40.927Z,87.53
2022-08-25T06:28:42.112Z,87.83
2022-08-25T06:29:43.529Z,87.98
2022-08-25T06:30:42.538Z,88.83
2022-08-25T06:31:43.251Z,87.13
2022-08-25T06:32:43.399Z,87.89
2022-08-25T06:33:43.574Z,86.55
2022-08-25T06:34:45.101Z,85.55
2022-08-25T06:35:42.311Z,85.65
2022-08-25T06:36:42.558Z,85.75
2022-08-25T06:37:42.794Z,86.05
2022-08-25T06:38:44.949Z,84.81
2022-08-25T06:39:47.168Z,85.31
2022-08-25T06:40:45.348Z,85.15
2022-08-25T06:41:43.923Z,85.61
2022-08-25T06:42:44.151Z,84.61
2022-08-25T06:43:49.865Z,84.51
2022-08-25T06:44:49.527Z,84.03
2022-08-25T06:45:46.785Z,84.31
2022-08-25T06:46:45.364Z,85.45
2022-08-25T06:47:45.738Z,84.41
2022-08-25T06:48:47.779Z,84.37
2022-08-25T06:49:49.285Z,82.83
2022-08-25T06:50:46.494Z,83.93
2022-08-25T06:51:48.677Z,83.77
2022-08-25T06:52:48.878Z,83.97
2022-08-25T06:53:49.066Z,83.23
2022-08-25T06:54:50.604Z,83.77
2022-08-25T06:55:49.462Z,83.97
2022-08-25T06:56:49.625Z,85.11
2022-08-25T06:57:48.505Z,84.91
2022-08-25T06:58:50.684Z,84.47
2022-08-25T06:59:53.403Z,83.93
2022-08-25T07:00:49.383Z,83.37
2022-08-25T07:01:51.449Z,82.43
2022-08-25T07:02:49.831Z,82.83
2022-08-25T07:03:52.634Z,83.57
2022-08-25T07:04:50.382Z,85.11
2022-08-25T07:05:52.491Z,84.51
2022-08-25T07:06:51.018Z,83.67
2022-08-25T07:07:51.107Z,85.01
2022-08-25T07:08:51.347Z,84.33
2022-08-25T07:09:51.596Z,82.56
2022-08-25T07:10:53.786Z,80.42
2022-08-25T07:11:52.185Z,80.22
2022-08-25T07:12:52.857Z,81.26
2022-08-25T07:13:54.639Z,81.06
2022-08-25T07:15:10.139Z,80.22
2022-08-25T07:15:54.266Z,80.42
2022-08-25T07:16:53.537Z,79.55
2022-08-25T07:17:53.792Z,77.92
2022-08-25T07:18:55.968Z,78.16
2022-08-25T07:19:57.638Z,79.13
2022-08-25T07:20:54.602Z,80.76
2022-08-25T07:21:54.859Z,80.16
2022-08-25T07:22:56.132Z,82.09
2022-08-25T07:23:55.328Z,81.79
2022-08-25T07:24:57.524Z,80.52
2022-08-25T07:25:55.834Z,79.82
2022-08-25T07:26:56.088Z,80.94
2022-08-25T07:27:58.838Z,83.57
2022-08-25T07:28:58.526Z,82.03
2022-08-25T07:29:58.703Z,81.93
2022-08-25T07:30:57.349Z,81.30
2022-08-25T07:31:57.731Z,81.56
2022-08-25T07:33:00.062Z,79.93
2022-08-25T07:33:58.246Z,79.52
2022-08-25T07:35:00.486Z,79.82
2022-08-25T07:35:58.810Z,79.09
2022-08-25T07:36:59.047Z,78.95
2022-08-25T07:37:59.297Z,77.86
2022-08-25T07:38:59.532Z,78.49
2022-08-25T07:40:01.771Z,79.43
2022-08-25T07:41:00.108Z,80.76
2022-08-25T07:42:00.426Z,80.72
2022-08-25T07:43:00.766Z,79.28
2022-08-25T07:44:02.967Z,79.28
2022-08-25T07:45:03.203Z,78.89
2022-08-25T07:46:01.516Z,79.58
2022-08-25T07:47:01.808Z,78.22
2022-08-25T07:48:02.016Z,76.61
2022-08-25T07:49:03.093Z,75.12
2022-08-25T07:50:05.640Z,75.32
2022-08-25T07:51:05.534Z,76.35
2022-08-25T07:52:05.259Z,76.21
2022-08-25T07:53:03.356Z,75.32
2022-08-25T07:54:04.685Z,75.12
2022-08-25T07:55:08.122Z,74.96
2022-08-25T07:57:04.472Z,75.85
2022-08-25T07:58:04.798Z,76.06
2022-08-25T07:59:06.007Z,74.79
2022-08-25T08:00:07.252Z,74.35
2022-08-25T08:01:05.565Z,73.36
2022-08-25T08:02:07.815Z,74.16
2022-08-25T08:03:06.117Z,74.19
2022-08-25T08:04:07.304Z,74.43
2022-08-25T08:05:08.976Z,75.85
2022-08-25T08:06:07.015Z,76.82
2022-08-25T08:07:12.142Z,77.19
2022-08-25T08:08:10.499Z,76.55
2022-08-25T08:09:10.893Z,75.92
2022-08-25T08:10:41.975Z,74.09
2022-08-25T08:11:09.688Z,74.29
2022-08-25T08:12:12.572Z,74.35
2022-08-25T08:13:10.272Z,72.83
2022-08-25T08:14:10.183Z,72.53
2022-08-25T08:15:11.129Z,72.10
2022-08-25T08:16:10.789Z,74.09
2022-08-25T08:17:12.078Z,74.79
2022-08-25T08:18:11.299Z,73.80
2022-08-25T08:19:14.683Z,73.80
2022-08-25T08:20:12.461Z,74.56
2022-08-25T08:21:12.303Z,76.19
2022-08-25T08:22:13.460Z,75.76
2022-08-25T08:23:12.872Z,76.29
2022-08-25T08:24:31.083Z,76.19
2022-08-25T08:25:18.711Z,74.59
2022-08-25T08:26:13.703Z,73.43
2022-08-25T08:27:15.074Z,72.07
2022-08-25T08:28:13.403Z,70.78
2022-08-25T08:29:16.644Z,71.84
2022-08-25T08:30:13.862Z,73.40
2022-08-25T08:31:14.134Z,73.03
2022-08-25T08:32:15.344Z,73.40
2022-08-25T08:33:16.539Z,73.07
2022-08-25T08:34:17.959Z,71.78
2022-08-25T08:35:16.746Z,72.37
2022-08-25T08:36:16.498Z,72.50
2022-08-25T08:37:16.742Z,71.04
2022-08-25T08:38:22.309Z,71.51
2022-08-25T08:39:21.187Z,70.42
2022-08-25T08:40:18.579Z,68.90
2022-08-25T08:41:16.977Z,71.04
2022-08-25T08:42:18.214Z,71.58
2022-08-25T08:43:18.939Z,71.11
2022-08-25T08:44:20.840Z,69.89
2022-08-25T08:45:19.818Z,69.39
2022-08-25T08:46:20.089Z,70.18
2022-08-25T08:47:20.192Z,69.16
2022-08-25T08:48:20.376Z,69.56
2022-08-25T08:49:20.158Z,68.63
2022-08-25T08:50:24.896Z,67.77
2022-08-25T08:51:23.223Z,65.80
2022-08-25T08:52:20.021Z,67.74
2022-08-25T08:53:22.213Z,68.07
2022-08-25T08:54:23.723Z,69.20
2022-08-25T08:55:20.948Z,69.92
2022-08-25T08:56:23.146Z,70.02
2022-08-25T08:57:21.503Z,69.69
2022-08-25T08:58:26.343Z,69.20
2022-08-25T08:59:30.183Z,69.53
2022-08-25T09:00:23.415Z,68.73
2022-08-25T09:01:24.492Z,67.97
2022-08-25T09:02:38.769Z,68.46
2022-08-25T09:03:26.021Z,68.17
2022-08-25T09:04:25.313Z,69.32
2022-08-25T09:05:25.703Z,69.29
2022-08-25T09:06:23.897Z,68.60
2022-08-25T09:07:26.085Z,69.29
2022-08-25T09:08:24.988Z,69.39
2022-08-25T09:09:26.326Z,69.72
2022-08-25T09:10:26.028Z,68.86
2022-08-25T09:11:26.574Z,68.33
2022-08-25T09:12:27.710Z,67.21
2022-08-25T09:13:26.209Z,68.13
2022-08-25T09:14:30.470Z,67.28
2022-08-25T09:15:26.575Z,67.02
2022-08-25T09:16:34.195Z,64.94
2022-08-25T09:17:29.852Z,65.73
2022-08-25T09:18:27.133Z,64.02
2022-08-25T09:19:29.317Z,64.48
2022-08-25T09:20:27.681Z,64.15
2022-08-25T09:21:27.916Z,64.35
2022-08-25T09:22:35.220Z,63.95
2022-08-25T09:23:29.442Z,64.91
2022-08-25T09:24:30.629Z,63.92
2022-08-25T09:25:52.559Z,66.03
2022-08-25T09:26:30.265Z,64.48
2022-08-25T09:27:29.560Z,63.29
2022-08-25T09:28:29.832Z,65.63
2022-08-25T09:29:32.039Z,66.36
2022-08-25T09:30:30.371Z,64.35
2022-08-25T09:31:30.669Z,63.95
2022-08-25T09:32:31.617Z,63.43
2022-08-25T09:33:31.113Z,63.96
2022-08-25T09:34:33.304Z,61.13
2022-08-25T09:35:31.742Z,59.63
2022-08-25T09:36:36.783Z,61.91
2022-08-25T09:37:33.235Z,63.59
2022-08-25T09:38:32.528Z,63.59
2022-08-25T09:39:34.710Z,64.48
2022-08-25T09:40:33.063Z,64.38
2022-08-25T09:41:36.219Z,62.93
2022-08-25T09:42:33.569Z,63.89
2022-08-25T09:43:35.770Z,62.31
2022-08-25T09:44:35.956Z,60.01
2022-08-25T09:45:34.403Z,62.50
2022-08-25T09:46:34.703Z,63.39
2022-08-25T09:47:34.918Z,65.50
2022-08-25T09:48:39.376Z,63.85
2022-08-25T09:49:38.373Z,62.77
2022-08-25T09:50:35.698Z,64.08
2022-08-25T09:51:42.976Z,63.68
2022-08-25T09:52:37.206Z,63.82
2022-08-25T09:53:36.492Z,63.71
2022-08-25T09:54:44.292Z,64.90
2022-08-25T09:55:37.993Z,63.39
2022-08-25T09:56:41.142Z,63.09
2022-08-25T09:57:39.368Z,62.74
2022-08-25T09:58:38.823Z,63.59
2022-08-25T09:59:40.030Z,63.65
2022-08-25T10:00:39.370Z,62.84
2022-08-25T10:01:40.580Z,63.00
2022-08-25T10:02:38.985Z,63.56
2022-08-25T10:03:40.128Z,63.85
2022-08-25T10:04:41.531Z,63.03
2022-08-25T10:05:39.814Z,63.23
2022-08-25T10:06:42.002Z,61.69
2022-08-25T10:07:40.313Z,60.38
2022-08-25T10:08:41.441Z,60.31
2022-08-25T10:09:42.783Z,61.33
2022-08-25T10:10:41.871Z,58.97
2022-08-25T10:11:44.877Z,59.14
2022-08-25T10:12:42.572Z,58.51
2022-08-25T10:13:43.083Z,57.73
2022-08-25T10:14:44.473Z,57.73
2022-08-25T10:15:46.064Z,58.36
2022-08-25T10:16:47.020Z,56.79
2022-08-25T10:17:43.907Z,56.71
2022-08-25T10:18:46.372Z,58.94
2022-08-25T10:19:45.516Z,58.15
2022-08-25T10:20:45.084Z,58.05
2022-08-25T10:21:46.032Z,60.14
2022-08-25T10:22:45.227Z,59.61
2022-08-25T10:23:47.682Z,60.57
2022-08-25T10:24:45.796Z,58.51
2022-08-25T10:25:59.414Z,58.32
2022-08-25T10:26:47.402Z,59.78
2022-08-25T10:27:46.537Z,59.85
2022-08-25T10:28:50.004Z,59.01
2022-08-25T10:29:47.109Z,56.59
2022-08-25T10:30:47.563Z,57.21
2022-08-25T10:31:48.702Z,57.63
2022-08-25T10:32:47.128Z,57.40
2022-08-25T10:33:50.506Z,57.43
2022-08-25T10:34:51.598Z,59.26
2022-08-25T10:35:48.832Z,58.94
2022-08-25T10:36:50.198Z,58.87
2022-08-25T10:37:48.492Z,59.48
2022-08-25T10:38:50.266Z,58.45
2022-08-25T10:39:55.739Z,58.80
2022-08-25T10:40:49.368Z,58.74
2022-08-25T10:41:53.330Z,58.22
2022-08-25T10:42:50.723Z,57.26
2022-08-25T10:43:51.142Z,58.50
2022-08-25T10:44:52.378Z,58.46
2022-08-25T10:45:52.643Z,58.95
2022-08-25T10:46:50.943Z,58.95
2022-08-25T10:47:51.210Z,58.86
2022-08-25T10:48:52.451Z,58.92
2022-08-25T10:49:52.669Z,58.63
2022-08-25T10:50:53.863Z,58.20
2022-08-25T10:51:52.450Z,57.61
2022-08-25T10:52:54.585Z,58.28
2022-08-25T10:53:56.248Z,57.43
2022-08-25T10:54:54.993Z,54.52
2022-08-25T10:55:53.561Z,53.70
2022-08-25T10:57:01.374Z,53.61
2022-08-25T10:57:55.898Z,54.83
2022-08-25T10:58:54.870Z,51.57
2022-08-25T10:59:54.719Z,52.62
2022-08-25T11:00:54.975Z,54.82
2022-08-25T11:01:57.165Z,53.83
2022-08-25T11:02:57.331Z,54.05
2022-08-25T11:03:57.366Z,54.84
2022-08-25T11:04:56.105Z,55.73
2022-08-25T11:05:58.257Z,55.21
2022-08-25T11:06:58.483Z,55.26
2022-08-25T11:07:58.642Z,56.37
2022-08-25T11:09:00.260Z,56.32
2022-08-25T11:09:57.466Z,55.01
2022-08-25T11:10:59.650Z,55.94
2022-08-25T11:11:58.819Z,54.08
2022-08-25T11:13:01.014Z,53.63
2022-08-25T11:13:59.270Z,52.15
2022-08-25T11:15:00.690Z,53.34
2022-08-25T11:16:16.489Z,54.77
2022-08-25T11:17:01.071Z,55.46
2022-08-25T11:18:02.163Z,54.64
2022-08-25T11:19:01.332Z,55.26
2022-08-25T11:20:01.155Z,54.55
2022-08-25T11:21:00.464Z,54.96
2022-08-25T11:22:00.796Z,52.62
2022-08-25T11:23:01.052Z,53.61
2022-08-25T11:24:05.223Z,53.81
2022-08-25T11:25:01.559Z,55.31
2022-08-25T11:26:01.827Z,55.31
2022-08-25T11:27:02.079Z,54.64
2022-08-25T11:28:04.438Z,55.68
2022-08-25T11:29:05.520Z,55.98
2022-08-25T11:30:06.150Z,55.88
2022-08-25T11:31:03.222Z,55.66
2022-08-25T11:32:03.428Z,55.43
2022-08-25T11:33:03.666Z,52.95
2022-08-25T11:34:07.886Z,53.71
2022-08-25T11:35:04.293Z,55.54
2022-08-25T11:36:04.556Z,56.63
2022-08-25T11:37:04.855Z,56.10
2022-08-25T11:38:07.288Z,56.08
2022-08-25T11:39:06.349Z,55.88
2022-08-25T11:40:05.739Z,55.73
2022-08-25T11:41:11.025Z,57.01
2022-08-25T11:42:08.235Z,56.39
2022-08-25T11:43:08.451Z,54.22
2022-08-25T11:44:09.700Z,54.87
2022-08-25T11:45:06.965Z,55.29
2022-08-25T11:46:07.294Z,54.45
2022-08-25T11:47:13.138Z,54.08
2022-08-25T11:48:10.563Z,56.43
2022-08-25T11:49:11.013Z,56.18
2022-08-25T11:50:10.003Z,55.81
2022-08-25T11:51:10.654Z,57.51
2022-08-25T11:52:08.983Z,58.45
2022-08-25T11:53:11.419Z,57.43
2022-08-25T11:54:12.584Z,57.63
2022-08-25T11:55:11.592Z,57.65
2022-08-25T11:56:10.217Z,57.04
2022-08-25T11:57:10.305Z,57.98
2022-08-25T11:58:12.506Z,58.97
2022-08-25T11:59:13.896Z,58.15
2022-08-25T12:00:12.880Z,57.70
2022-08-25T12:01:11.450Z,58.75
2022-08-25T12:02:11.682Z,56.71
2022-08-25T12:03:13.866Z,57.57
2022-08-25T12:04:15.166Z,57.77
2022-08-25T12:05:12.479Z,56.14
2022-08-25T12:06:14.656Z,57.29
2022-08-25T12:07:12.969Z,55.65
2022-08-25T12:08:15.369Z,55.77
2022-08-25T12:09:16.540Z,56.29
2022-08-25T12:10:13.836Z,56.62
2022-08-25T12:11:16.018Z,58.09
2022-08-25T12:12:14.566Z,57.33
2022-08-25T12:13:16.647Z,58.15
2022-08-25T12:14:18.082Z,58.34
2022-08-25T12:15:15.428Z,57.82
2022-08-25T12:16:15.725Z,57.31
2022-08-25T12:17:15.921Z,56.59
2022-08-25T12:18:18.789Z,58.05
2022-08-25T12:19:20.304Z,59.91
2022-08-25T12:20:16.714Z,60.53
2022-08-25T12:21:16.993Z,61.03
2022-08-25T12:22:17.231Z,59.59
2022-08-25T12:23:20.897Z,60.08
2022-08-25T12:24:20.705Z,59.17
2022-08-25T12:25:21.253Z,56.04
2022-08-25T12:26:18.331Z,55.35
2022-08-25T12:27:18.625Z,57.14
2022-08-25T12:28:19.817Z,59.16
2022-08-25T12:29:22.547Z,59.16
2022-08-25T12:30:22.730Z,59.50
2022-08-25T12:31:21.503Z,57.28
2022-08-25T12:32:20.968Z,57.40
2022-08-25T12:33:22.225Z,59.01
2022-08-25T12:34:26.690Z,58.57
2022-08-25T12:35:22.644Z,58.28
2022-08-25T12:36:22.115Z,59.26
2022-08-25T12:37:22.280Z,59.29
2022-08-25T12:38:23.172Z,60.44
2022-08-25T12:39:25.882Z,59.60
2022-08-25T12:40:24.156Z,57.90
2022-08-25T12:41:24.484Z,57.60
2022-08-25T12:42:26.181Z,57.35
2022-08-25T12:43:25.090Z,56.37
2022-08-25T12:44:27.084Z,57.21
2022-08-25T12:45:25.608Z,58.64
2022-08-25T12:46:26.141Z,58.22
2022-08-25T12:47:26.256Z,57.17
2022-08-25T12:48:24.576Z,58.05
2022-08-25T12:49:25.729Z,57.75
2022-08-25T12:50:27.948Z,59.36
2022-08-25T12:51:26.320Z,59.33
2022-08-25T12:52:27.833Z,58.22
2022-08-25T12:53:27.844Z,59.40
2022-08-25T12:54:27.938Z,57.50
2022-08-25T12:55:28.225Z,56.43
2022-08-25T12:56:27.631Z,55.38
2022-08-25T12:57:29.583Z,55.77